Time;durP1;ratioP1;P1;durP2;ratioP2;P2;SDS_P1;SDS_P2;PMS_P1;PMS_P2;Temp;Humidity;BMP_temperature;BMP_pressure;BME280_temperature;BME280_humidity;BME280_pressure;Samples;Min_cycle;Max_cycle;Signal;HPM_P1;HPM_P2
2024/04/01 06:07:09;;;;;;;57.30;10.30;;;;;;;16.48;69.81;97498.96;265580;1302;544992;-88
2024/04/01 06:13:16;;;;;;;78.70;9.30;;;;;;;16.92;68.41;97495.89;271057;1282;22429;-88
2024/04/01 06:19:18;;;;;;;73.30;9.90;;;;;;;17.29;67.80;97512.63;268384;1278;3371977;-88
2024/04/01 06:25:20;;;;;;;66.10;9.10;;;;;;;17.47;67.23;97510.14;271477;1279;22413;-88
2024/04/01 06:31:21;;;;;;;60.50;8.90;;;;;;;17.55;67.02;97509.04;271259;1278;24282;-87
2024/04/01 06:37:23;;;;;;;70.10;9.90;;;;;;;17.53;67.29;97536.45;271194;1278;22519;-87
2024/04/01 06:43:27;;;;;;;53.30;9.00;;;;;;;17.41;67.09;97548.86;270490;1278;22843;-91
2024/04/01 06:49:29;;;;;;;65.40;10.10;;;;;;;17.35;66.63;97562.84;271535;1279;22561;-88
2024/04/01 06:55:39;;;;;;;60.80;8.50;;;;;;;17.38;66.68;97536.73;269703;1278;22282;-88
2024/04/01 07:02:06;;;;;;;49.60;9.10;;;;;;;17.42;66.49;97524.30;271656;1279;23283;-87
2024/04/01 07:16:08;;;;;;;52.50;8.40;;;;;;;17.72;67.81;97493.47;271678;1288;22278;-87
2024/04/01 07:22:12;;;;;;;54.20;8.60;;;;;;;18.19;66.33;97477.79;271000;1282;23578;-88
2024/04/01 07:28:14;;;;;;;62.40;8.90;;;;;;;18.80;64.88;97466.35;270990;1280;23364;-88
2024/04/01 07:34:15;;;;;;;60.10;8.60;;;;;;;19.45;63.52;97467.25;271069;1281;22325;-88
2024/04/01 07:40:17;;;;;;;62.70;8.90;;;;;;;20.11;62.08;97475.73;271089;1282;22431;-88
2024/04/01 07:46:19;;;;;;;55.00;9.60;;;;;;;20.76;61.03;97480.67;271231;1280;22377;-88
2024/04/01 07:52:21;;;;;;;46.70;8.40;;;;;;;21.23;59.36;97493.42;271055;1281;22502;-87
2024/04/01 07:58:23;;;;;;;57.40;7.90;;;;;;;21.68;58.31;97494.84;271118;1280;22335;-88
2024/04/01 08:04:24;;;;;;;56.90;8.90;;;;;;;22.22;56.02;97490.27;271186;1279;23184;-87
2024/04/01 08:10:26;;;;;;;63.60;9.60;;;;;;;22.52;52.19;97493.58;271232;1269;23793;-88
2024/04/01 08:16:28;;;;;;;58.50;8.30;;;;;;;22.64;51.91;97493.36;271090;1279;22452;-88
2024/04/01 08:22:29;;;;;;;55.30;8.50;;;;;;;23.08;51.83;97486.66;271173;1279;23655;-87
2024/04/01 08:28:31;;;;;;;67.80;10.40;;;;;;;23.24;50.25;97464.22;270542;1279;22543;-87
2024/04/01 08:34:33;;;;;;;78.40;12.20;;;;;;;23.61;46.72;97443.27;270603;1279;22269;-88
2024/04/01 08:40:42;;;;;;;69.00;10.30;;;;;;;23.31;44.19;97421.11;270985;1279;22550;-88
2024/04/01 08:46:50;;;;;;;82.10;11.90;;;;;;;23.10;45.62;97414.05;270234;1279;22627;-87
2024/04/01 08:52:56;;;;;;;60.10;10.60;;;;;;;23.18;45.89;97415.23;270442;1279;22368;-87
2024/04/01 08:58:59;;;;;;;78.40;11.80;;;;;;;23.30;46.26;97409.55;272296;1270;22302;-86
2024/04/01 09:05:01;;;;;;;65.10;10.60;;;;;;;23.81;46.09;97398.48;272102;1272;23133;-88
2024/04/01 09:11:03;;;;;;;67.60;10.00;;;;;;;24.23;46.15;97382.55;272394;1272;22404;-85
2024/04/01 09:17:06;;;;;;;74.10;10.50;;;;;;;24.54;46.48;97378.23;272634;1270;22310;-85
2024/04/01 09:23:09;;;;;;;67.80;11.30;;;;;;;24.84;46.56;97384.76;272536;1270;22312;-85
2024/04/01 09:29:13;;;;;;;68.40;12.00;;;;;;;25.18;45.64;97382.05;273015;1267;22272;-85
2024/04/01 09:35:46;;;;;;;59.10;10.50;;;;;;;25.62;44.33;97377.76;273039;1269;22364;-87
2024/04/01 09:41:51;;;;;;;62.30;10.30;;;;;;;25.72;41.25;97369.53;270959;1267;22652;-86
2024/04/01 09:47:58;;;;;;;69.70;10.30;;;;;;;25.60;38.99;97352.05;273239;1267;22217;-86
2024/04/01 09:54:00;;;;;;;69.80;12.00;;;;;;;25.60;39.26;97342.77;272954;1270;22509;-86
2024/04/01 10:00:14;;;;;;;52.60;8.40;;;;;;;25.57;39.93;97339.93;271473;1267;23235;-88
2024/04/01 10:06:55;;;;;;;66.90;10.50;;;;;;;25.49;38.83;97332.36;272293;1269;22433;-88
2024/04/01 10:13:46;;;;;;;59.70;10.50;;;;;;;25.15;37.45;97336.08;270853;1269;22542;-86
2024/04/01 10:19:50;;;;;;;56.90;9.50;;;;;;;25.12;38.24;97339.50;271772;1268;22406;-86
2024/04/01 10:26:20;;;;;;;48.90;8.30;;;;;;;25.29;39.20;97334.08;273007;1269;23761;-86
2024/04/01 10:32:34;;;;;;;55.30;9.70;;;;;;;25.78;38.86;97317.23;273076;1269;22329;-87
2024/04/01 10:39:01;;;;;;;58.50;9.40;;;;;;;26.07;37.07;97303.98;273193;1267;23151;-86
2024/04/01 11:31:23;;;;;;;42.00;7.00;;;;;;;25.56;38.69;97246.87;261641;1306;545079;-89
2024/04/01 11:38:13;;;;;;;;;;;;;;;;;;;;;
2024/04/01 11:44:42;;;;;;;52.40;8.70;;;;;;;25.61;37.46;97238.08;268515;1269;2289333;-89
2024/04/01 11:50:54;;;;;;;48.20;7.80;;;;;;;25.65;37.33;97230.16;270205;1269;22549;-91
2024/04/01 11:57:25;;;;;;;47.50;8.10;;;;;;;25.51;36.51;97230.13;271246;1267;22528;-91
2024/04/01 12:03:39;;;;;;;54.70;9.40;;;;;;;25.47;37.27;97235.19;272099;1257;22694;-90
2024/04/01 12:10:12;;;;;;;48.10;8.30;;;;;;;25.45;36.87;97240.59;271675;1266;22629;-90
2024/04/01 12:16:15;;;;;;;43.40;8.50;;;;;;;25.44;37.02;97241.58;270526;1265;22546;-90
2024/04/01 12:22:21;;;;;;;45.60;7.40;;;;;;;25.44;38.50;97235.71;271209;1266;22541;-89
2024/04/01 12:28:28;;;;;;;45.30;7.10;;;;;;;25.37;38.40;97219.70;271143;1267;22554;-88
2024/04/01 12:34:52;;;;;;;39.70;6.90;;;;;;;25.21;38.30;97218.52;270665;1267;22662;-85
2024/04/01 12:41:01;;;;;;;48.00;7.40;;;;;;;25.07;36.80;97225.99;270435;1267;24459;-87
2024/04/01 12:47:06;;;;;;;44.40;6.60;;;;;;;24.91;36.76;97223.95;270233;1267;22554;-89
2024/04/01 12:53:48;;;;;;;44.90;6.90;;;;;;;24.90;37.24;97216.63;270287;1267;22591;-89
2024/04/01 13:00:14;;;;;;;63.70;8.30;;;;;;;25.01;37.24;97212.59;270761;1266;22887;-88
2024/04/01 13:06:48;;;;;;;48.40;9.90;;;;;;;25.13;36.83;97210.30;270959;1267;23830;-88
2024/04/01 13:13:41;;;;;;;50.10;8.50;;;;;;;25.09;34.79;97207.98;271068;1267;25248;-88
2024/04/01 13:20:09;;;;;;;58.40;7.80;;;;;;;25.07;33.83;97202.33;270392;1267;22531;-88
2024/04/01 13:26:48;;;;;;;54.40;7.00;;;;;;;25.03;34.42;97203.91;270278;1267;22621;-90
2024/04/01 13:33:41;;;;;;;969.90;752.10;;;;;;;25.16;34.35;97198.92;270500;1267;26612;-90
2024/04/01 13:40:57;;;;;;;68.50;30.10;;;;;;;25.28;33.93;97196.14;270673;1267;22568;-88
2024/04/01 13:47:37;;;;;;;44.20;7.70;;;;;;;25.43;33.25;97193.23;271478;1266;22576;-89
2024/04/01 13:53:45;;;;;;;55.20;11.20;;;;;;;25.55;32.53;97193.39;271428;1266;22554;-89
2024/04/01 14:00:26;;;;;;;71.60;10.90;;;;;;;25.69;31.71;97193.66;270500;1265;22601;-88
2024/04/01 14:07:17;;;;;;;54.40;11.50;;;;;;;25.60;32.01;97179.59;270963;1265;22521;-88
2024/04/01 14:14:00;;;;;;;52.50;8.70;;;;;;;25.29;31.40;97171.85;270357;1266;22536;-89
2024/04/01 14:20:08;;;;;;;66.70;9.80;;;;;;;25.11;30.94;97167.71;270552;1265;22561;-88
2024/04/01 14:26:16;;;;;;;49.50;9.00;;;;;;;25.03;29.92;97157.46;270518;1265;22649;-87
2024/04/01 14:32:20;;;;;;;58.90;10.60;;;;;;;24.94;30.86;97155.96;270237;1265;22515;-88
2024/04/01 14:38:34;;;;;;;74.40;17.30;;;;;;;24.90;30.71;97151.20;270268;1266;22557;-89
2024/04/01 14:44:58;;;;;;;121.40;37.90;;;;;;;24.77;31.58;97146.71;270044;1266;26215;-89
2024/04/01 14:51:41;;;;;;;55.90;10.50;;;;;;;24.63;31.69;97149.21;270393;1266;22526;-90
2024/04/01 14:58:06;;;;;;;71.60;9.90;;;;;;;24.63;31.89;97145.14;270946;1265;22680;-88
2024/04/01 15:04:24;;;;;;;64.20;11.00;;;;;;;24.74;31.27;97132.73;271136;1265;22633;-90
2024/04/01 15:11:36;;;;;;;68.00;10.30;;;;;;;24.73;30.91;97127.70;270779;1265;22522;-87
2024/04/01 15:18:45;;;;;;;63.40;9.10;;;;;;;24.70;30.89;97125.46;271489;1265;23343;-89
2024/04/01 15:33:45;;;;;;;58.10;11.10;;;;;;;24.80;30.75;97134.38;272051;1266;25683;-88
2024/04/01 15:46:56;;;;;;;54.20;9.70;;;;;;;24.55;30.49;97156.40;271446;1269;22264;-87
2024/04/01 15:53:09;;;;;;;65.70;11.40;;;;;;;24.44;30.83;97174.58;271582;1270;22608;-85
2024/04/01 15:59:18;;;;;;;69.40;12.10;;;;;;;24.23;31.37;97172.41;270614;1269;22403;-86
2024/04/01 16:05:26;;;;;;;55.60;10.50;;;;;;;24.02;31.37;97173.21;269928;1269;25364;-86
2024/04/01 16:11:31;;;;;;;65.00;10.90;;;;;;;23.95;31.16;97170.45;269882;1269;22544;-87
2024/04/01 16:17:38;;;;;;;60.50;9.20;;;;;;;23.87;31.43;97171.36;271039;1269;23204;-87
2024/04/01 16:23:40;;;;;;;;;;;;;;;23.77;31.31;97167.64;272180;1269;22500;-88
2024/04/01 16:29:44;;;;;;;58.90;9.90;;;;;;;23.70;31.43;97170.78;270367;1261;22745;-87
2024/04/01 16:35:48;;;;;;;57.70;10.50;;;;;;;23.60;31.34;97171.02;272411;1269;22467;-88
2024/04/01 16:41:56;;;;;;;73.60;10.10;;;;;;;23.58;31.24;97179.64;272932;1270;22492;-88
2024/04/01 16:48:06;;;;;;;78.40;11.90;;;;;;;23.49;31.46;97178.10;272883;1269;24409;-87
2024/04/01 16:54:24;;;;;;;65.90;11.10;;;;;;;23.35;31.58;97183.03;272767;1269;22378;-88
2024/04/01 17:00:29;;;;;;;75.40;11.20;;;;;;;23.19;32.02;97185.75;271634;1270;22522;-86
2024/04/01 17:06:36;;;;;;;79.30;12.20;;;;;;;23.03;32.33;97189.95;257426;1269;20001741;-89
2024/04/01 17:12:41;;;;;;;80.20;12.90;;;;;;;22.96;32.69;97193.15;273045;1260;22344;-88
2024/04/01 17:18:53;;;;;;;75.70;12.00;;;;;;;22.92;32.93;97203.08;272842;1269;23059;-87
2024/04/01 17:25:00;;;;;;;70.60;12.10;;;;;;;22.80;33.03;97209.61;272273;1270;22349;-87
2024/04/01 17:31:06;;;;;;;69.70;11.30;;;;;;;22.72;33.11;97217.08;273000;1269;22431;-87
2024/04/01 17:37:26;;;;;;;87.90;11.90;;;;;;;22.54;33.49;97224.85;272747;1269;23904;-87
2024/04/01 17:43:28;;;;;;;74.30;12.40;;;;;;;22.31;34.05;97232.14;272043;1269;23661;-87
2024/04/01 17:49:43;;;;;;;66.50;12.30;;;;;;;22.03;34.46;97233.14;272449;1269;22459;-88
2024/04/01 17:56:50;;;;;;;;;;;;;;;;;;;;;
2024/04/01 18:03:22;;;;;;;;;;;;;;;21.57;35.25;97209.77;271750;1269;22606;-87
2024/04/01 18:09:26;;;;;;;85.20;12.50;;;;;;;21.29;35.66;97206.31;271213;1269;22518;-86
2024/04/01 18:15:31;;;;;;;70.60;12.80;;;;;;;21.02;36.10;97201.66;271951;1261;22474;-87
2024/04/01 18:21:39;;;;;;;71.90;12.20;;;;;;;20.78;36.34;97197.80;271437;1269;23683;-87
2024/04/01 18:35:36;;;;;;;73.10;12.50;;;;;;;20.09;38.05;97191.45;273634;1272;22246;-86
2024/04/01 18:41:45;;;;;;;74.30;13.50;;;;;;;19.81;38.70;97194.99;273142;1269;23605;-87
2024/04/01 18:48:18;;;;;;;74.50;11.50;;;;;;;19.56;39.37;97188.41;273309;1269;23373;-86
2024/04/01 18:54:41;;;;;;;;;;;;;;;;;;;;;
2024/04/01 19:00:49;;;;;;;80.10;17.40;;;;;;;18.89;41.11;97180.06;273075;1269;22334;-86
2024/04/01 19:06:56;;;;;;;82.20;15.20;;;;;;;18.63;41.95;97179.81;272996;1269;22307;-87
2024/04/01 19:13:11;;;;;;;81.00;14.00;;;;;;;18.37;42.85;97176.09;273102;1269;22216;-87
2024/04/01 19:19:53;;;;;;;69.90;14.90;;;;;;;18.11;43.49;97171.95;273550;1269;22213;-86
2024/04/01 19:32:47;;;;;;;;;;;;;;;;;;;;;
2024/04/01 19:39:34;;;;;;;;;;;;;;;;;;;;;
2024/04/01 19:45:52;;;;;;;80.50;14.20;;;;;;;17.68;45.68;97160.48;272525;1269;23305;-87
2024/04/01 19:51:54;;;;;;;77.50;13.60;;;;;;;17.53;46.37;97150.89;272714;1269;22225;-86
2024/04/01 19:58:00;;;;;;;83.60;13.30;;;;;;;17.31;47.03;97151.09;272947;1269;22256;-86
2024/04/01 20:04:06;;;;;;;63.50;13.20;;;;;;;17.28;47.05;97147.66;273049;1269;23461;-86
2024/04/01 20:10:31;;;;;;;76.70;12.50;;;;;;;17.22;47.95;97137.73;272993;1270;22493;-86
2024/04/01 20:16:38;;;;;;;66.30;12.40;;;;;;;16.97;48.23;97127.63;272990;1269;22995;-86
2024/04/01 20:22:44;;;;;;;67.90;13.30;;;;;;;16.80;49.26;97128.05;273117;1269;22358;-87
2024/04/01 20:28:49;;;;;;;69.60;14.00;;;;;;;16.57;50.49;97121.17;273035;1269;22377;-87
2024/04/01 20:34:54;;;;;;;73.00;12.20;;;;;;;16.47;50.09;97105.30;273065;1269;22383;-88
2024/04/01 20:41:04;;;;;;;77.30;12.20;;;;;;;16.60;49.79;97090.40;273158;1269;22365;-88
2024/04/01 20:47:10;;;;;;;75.30;13.90;;;;;;;17.16;49.18;97075.95;273406;1274;23040;-88
2024/04/01 20:53:21;;;;;;;78.30;13.50;;;;;;;17.52;48.91;97060.91;270629;1269;26501;-87
2024/04/01 20:59:29;;;;;;;73.10;12.60;;;;;;;17.38;49.20;97052.23;269909;1269;25256;-87
2024/04/01 21:05:31;;;;;;;74.20;12.30;;;;;;;17.23;49.76;97041.36;270106;1269;25426;-87
2024/04/01 21:11:34;;;;;;;63.90;12.80;;;;;;;17.13;50.06;97037.09;269831;1269;26603;-87
2024/04/01 21:18:18;;;;;;;69.10;12.40;;;;;;;17.29;50.35;97028.48;270593;1269;22538;-86
2024/04/01 21:24:25;;;;;;;65.30;10.70;;;;;;;16.96;51.27;97031.05;270182;1269;22627;-86
2024/04/01 21:30:29;;;;;;;60.20;10.90;;;;;;;16.49;52.62;97041.60;270488;1269;22651;-87
2024/04/01 21:36:31;;;;;;;67.10;12.20;;;;;;;16.24;53.81;97051.05;269772;1269;23336;-87
2024/04/01 21:42:33;;;;;;;66.80;12.50;;;;;;;16.00;55.58;97109.70;270031;1269;22352;-88
2024/04/01 21:48:35;;;;;;;80.80;14.10;;;;;;;15.85;55.83;97116.19;271061;1271;23725;-86
2024/04/01 21:55:02;;;;;;;47.50;9.70;;;;;;;15.85;57.17;97120.22;270112;1270;22549;-88
2024/04/01 22:09:17;;;;;;;;;;;;;;;;;;;;;
2024/04/01 22:16:09;;;;;;;24.60;3.40;;;;;;;16.00;60.32;97164.91;271152;1270;23640;-87
2024/04/01 22:22:34;;;;;;;;;;;;;;;;;;;;;
2024/04/01 22:29:12;;;;;;;11.30;2.50;;;;;;;15.72;62.17;97196.95;272193;1270;22390;-88
2024/04/01 22:42:43;;;;;;;7.70;2.00;;;;;;;15.45;63.29;97234.42;273120;1268;22437;-88
2024/04/01 22:48:48;;;;;;;4.90;1.50;;;;;;;15.29;63.87;97243.10;273011;1269;23485;-87
2024/04/01 22:55:10;;;;;;;;;;;;;;;;;;;;;
2024/04/01 23:01:23;;;;;;;5.60;1.90;;;;;;;14.95;65.67;97242.11;272557;1269;22247;-86
2024/04/01 23:07:34;;;;;;;6.10;1.50;;;;;;;14.82;66.46;97240.27;272647;1269;22467;-88
2024/04/01 23:14:09;;;;;;;;;;;;;;;;;;;;;
2024/04/01 23:20:45;;;;;;;;;;;;;;;;;;;;;
2024/04/01 23:27:40;;;;;;;;;;;;;;;;;;;;;
2024/04/01 23:33:55;;;;;;;8.80;1.70;;;;;;;14.20;69.13;97226.27;272565;1269;22270;-88
2024/04/01 23:40:40;;;;;;;4.40;1.70;;;;;;;14.08;69.86;97231.66;273210;1269;22353;-88
2024/04/01 23:46:45;;;;;;;7.80;1.40;;;;;;;14.05;70.59;97240.98;271634;1269;22351;-88
2024/04/01 23:52:56;;;;;;;4.10;1.50;;;;;;;14.04;71.15;97237.27;272484;1269;22430;-87
